Pos First Name Last Name YOB Country Start
Num
Time Swim T1 Bike T2 Run
1 Sascha Hubbert 1990 GER 107 08:54:03 01:11:28 00:03:20 04:25:55 00:04:31 03:08:52
2 Jan De Clercq 1989 BEL 101 09:23:36 00:57:26 00:05:24 05:06:32 00:03:51 03:10:24
3 Koen Rutjes 1988 NED 115 09:24:06 01:00:44 00:03:54 04:54:32 00:04:24 03:20:34
4 Josh Holman 1992 GBR 105 09:27:51 00:59:24 00:04:33 05:07:33 00:04:29 03:11:54
5 Jean Julien Trinez 1992 FRA 102 09:32:46 00:56:26 00:05:06 05:06:19 00:04:09 03:20:48
6 Joël Cox 1992 NED 110 09:33:03 01:03:28 00:07:37 04:49:39 00:05:39 03:26:41
7 Henk Ruijssenaars 1988 NED 118 09:49:59 01:10:43 00:08:30 04:52:00 00:04:55 03:33:53
8 Jim Otter 1990 NED 111 09:53:58 01:10:58 00:04:32 05:09:00 00:02:51 03:26:39
9 Jorn Bagijn 1991 NED 119 10:19:05 01:12:22 00:06:06 04:59:48 00:03:53 03:56:58
10 Matthew Dewhurst 1991 GBR 104 10:32:45 00:59:43 00:04:01 05:18:46 00:05:05 04:05:11
11 Hessel Dreteler 1989 NED 112 10:37:31 00:59:41 00:03:36 05:09:23 00:03:11 04:21:43
12 Jamie Platts 1989 GBR 103 10:39:16 01:00:53 00:05:44 05:38:19 00:04:49 03:49:32
13 Michael Meijer 1992 NED 121 11:25:20 01:10:33 00:07:11 05:42:17 00:06:10 04:19:12
14 Wouter Neijenhuis 1989 NED 117 11:33:21 01:32:10 00:06:24 05:28:00 00:06:34 04:20:15
15 Maik Steenkamp 1991 NED 113 11:40:28 00:54:48 00:06:59 06:16:38 00:06:31 04:15:34
16 Dylan Schoonderwoerd 1992 NED 116 11:56:01 01:10:39 00:05:54 05:41:30 00:06:09 04:51:52
17 Joost Lameijer 1989 NED 109 12:01:19 00:57:13 00:06:08 05:48:27 00:08:16 05:01:17
18 Louis Goulmy 1989 NED 114 12:32:04 01:13:22 00:07:53 06:14:22 00:06:59 04:49:29
19 Thijs Hekman 1990 NED 122 12:57:31 00:56:14 00:06:42 06:09:19 00:05:20 05:39:59
20 Vincent Bloemen 1991 NED 120 13:50:15 01:36:58 00:06:45 06:32:52 00:10:42 05:23:00
Program notes:

Technical Delegate: Kalle Jensen/NOR. Race Referee: Marco Van Oostende/NED. Competition Jury: Kalle Jensen/NOR, Richard Belderok/NED,Christie Brouwer/NED. Distances: Swim3800m (2 laps), Bike 180 km (2 laps), Run: 42 km(6 laps). Water temperature 18.5 C. Air Temperature 13.5 C. Wetsuits allowed.